CPX665 Details

Departure: Savannah/Hilton Head International Airport (KSAV)
Arrival: Miami International Airport (KMIA) at N/A
Route: KELER V437 OMN V3 FLL
Notes:


Current Weather Information
KSAV 171715Z 17011KT 10SM BKN010 BKN028 OVC033 28/26 A3001 RMK AO2 LTG DSNT SE CIG 007V013 CB DSNT SE-S T02780256
KMIA 171653Z 14008KT 110V190 10SM SCT035 BKN050 BKN120 BKN250 33/23 A3009 RMK AO2 LTG DSNT NW SLP191 CB DSNT NW T03330228